TAF KPBF
KPBF 090526Z 0906/1006 VRB04KT P6SM SKC FM091300 17007KT P6SM BKN015 OVC025 FM091700 19010G18KT P6SM BKN012 OVC025 FM100000 17006KT P6SM BKN015 OVC035=
METAR KPBF
WC KPBF
WS KPBF
WV KPBF